Time;durP1;ratioP1;P1;durP2;ratioP2;P2;SDS_P1;SDS_P2;PMS_P1;PMS_P2;Temp;Humidity;BMP_temperature;BMP_pressure;BME280_temperature;BME280_humidity;BME280_pressure;Samples;Min_cycle;Max_cycle;Signal;HPM_P1;HPM_P2
2021/03/25 00:00:43;;;;;;;4.85;2.55;;;;;;;4.51;36.17;99883.94;5013163;28;20045;-62
2021/03/25 00:03:15;;;;;;;4.10;2.70;;;;;;;4.57;36.50;99898.63;5012274;28;20053;-62
2021/03/25 00:05:40;;;;;;;8.98;3.63;;;;;;;4.58;36.51;99895.03;5012283;28;20456;-61
2021/03/25 00:08:10;;;;;;;8.40;3.58;;;;;;;4.48;36.57;99886.75;5009709;28;20041;-62
2021/03/25 00:10:37;;;;;;;6.38;3.40;;;;;;;4.28;36.30;99845.41;5012726;28;20121;-61
2021/03/25 00:13:04;;;;;;;7.32;3.28;;;;;;;4.65;36.17;99906.16;5012406;28;20073;-62
2021/03/25 00:15:31;;;;;;;5.18;3.00;;;;;;;4.62;36.09;99898.38;5012073;28;20038;-59
2021/03/25 00:17:56;;;;;;;10.80;3.28;;;;;;;4.67;36.12;99899.84;5010797;28;20050;-60
2021/03/25 00:20:22;;;;;;;5.55;2.92;;;;;;;4.66;36.45;99908.75;5011369;28;20476;-57
2021/03/25 00:22:48;;;;;;;10.93;3.28;;;;;;;4.58;36.32;99889.72;5012768;28;20456;-61
2021/03/25 00:25:19;;;;;;;7.38;3.80;;;;;;;4.64;36.75;99909.75;5012084;28;20065;-61
2021/03/25 00:27:45;;;;;;;6.70;2.90;;;;;;;4.61;36.24;99900.19;5006296;28;20026;-61
2021/03/25 00:30:14;;;;;;;9.20;3.17;;;;;;;4.62;36.11;99893.94;5011041;28;20142;-62
2021/03/25 00:32:41;;;;;;;6.93;2.95;;;;;;;4.50;36.65;99868.09;5011756;28;20412;-61
2021/03/25 00:35:08;;;;;;;7.00;3.13;;;;;;;4.67;36.13;99914.91;5012206;28;20042;-60
2021/03/25 00:37:34;;;;;;;4.65;3.28;;;;;;;4.62;36.04;99893.94;5011591;28;20057;-65
2021/03/25 00:40:00;;;;;;;9.13;3.40;;;;;;;4.63;36.29;99881.53;5005130;28;20080;-60
2021/03/25 00:42:26;;;;;;;7.25;3.25;;;;;;;4.61;35.87;99889.59;5013479;28;20034;-60
2021/03/25 00:44:51;;;;;;;5.75;2.90;;;;;;;4.53;36.47;99883.84;5013087;28;20053;-62
2021/03/25 00:47:17;;;;;;;6.93;2.70;;;;;;;4.49;36.60;99882.28;5012011;28;20037;-61
2021/03/25 00:49:42;;;;;;;11.57;2.80;;;;;;;4.44;36.53;99877.22;5010425;28;20091;-61
2021/03/25 00:52:08;;;;;;;8.93;3.03;;;;;;;4.42;36.45;99885.28;5010990;28;20041;-61
2021/03/25 00:54:33;;;;;;;4.10;2.38;;;;;;;4.41;36.12;99895.94;5012033;28;20034;-60
2021/03/25 00:56:59;;;;;;;6.28;2.63;;;;;;;4.37;36.55;99882.03;5011058;28;20029;-59
2021/03/25 00:59:24;;;;;;;3.50;2.22;;;;;;;4.20;36.25;99847.63;5010164;28;20125;-60
2021/03/25 01:01:50;;;;;;;4.68;2.65;;;;;;;4.31;36.84;99875.25;5011647;28;20026;-60
2021/03/25 01:04:15;;;;;;;4.97;2.30;;;;;;;4.29;36.52;99878.91;5010957;28;20033;-61
2021/03/25 01:06:41;;;;;;;5.50;2.38;;;;;;;3.88;36.43;99814.81;5011899;28;20029;-61
2021/03/25 01:09:11;;;;;;;6.25;3.20;;;;;;;4.24;37.10;99870.34;5010973;28;20136;-61
2021/03/25 01:11:37;;;;;;;4.43;2.72;;;;;;;4.30;36.37;99867.38;5001922;28;20120;-61
2021/03/25 01:14:08;;;;;;;7.53;2.15;;;;;;;4.29;36.59;99877.13;5011208;28;20469;-61
2021/03/25 01:16:41;;;;;;;7.55;2.83;;;;;;;4.33;36.14;99875.16;5010017;28;20109;-60
2021/03/25 01:19:28;;;;;;;5.38;2.50;;;;;;;4.35;36.24;99870.66;5011283;28;20052;-60
2021/03/25 01:21:56;;;;;;;6.30;2.38;;;;;;;4.29;36.25;99874.47;5001085;28;20096;-59
2021/03/25 01:24:22;;;;;;;4.90;2.40;;;;;;;4.27;36.30;99864.91;5007628;28;20087;-61
2021/03/25 01:26:48;;;;;;;6.15;2.22;;;;;;;4.35;36.27;99878.59;5011728;28;20041;-60
2021/03/25 01:29:14;;;;;;;4.15;2.40;;;;;;;4.25;36.25;99850.88;5010819;28;20037;-59
2021/03/25 01:31:40;;;;;;;4.35;2.60;;;;;;;4.34;36.67;99870.72;5009240;28;20125;-61
2021/03/25 01:34:08;;;;;;;4.65;2.55;;;;;;;4.31;36.69;99850.53;5010556;28;20052;-61
2021/03/25 01:36:34;;;;;;;6.93;3.03;;;;;;;4.41;35.86;99862.38;5010837;28;20056;-61
2021/03/25 01:39:00;;;;;;;5.13;2.30;;;;;;;4.37;36.25;99863.47;5010748;28;20025;-61
2021/03/25 01:41:31;;;;;;;7.30;2.55;;;;;;;4.29;36.51;99863.88;5010136;28;20414;-61
2021/03/25 01:43:57;;;;;;;3.08;1.98;;;;;;;4.30;36.56;99865.59;5010374;28;20033;-59
2021/03/25 01:46:39;;;;;;;6.93;2.90;;;;;;;4.35;36.49;99868.00;5010740;28;20042;-54
2021/03/25 01:49:13;;;;;;;6.05;2.50;;;;;;;4.24;36.55;99870.34;5011265;28;20034;-61
2021/03/25 01:52:14;;;;;;;3.22;2.42;;;;;;;4.19;36.76;99864.47;5008693;28;20710;-61
2021/03/25 01:55:08;;;;;;;3.40;2.03;;;;;;;4.06;37.04;99858.97;5010013;28;20048;-56
2021/03/25 01:58:11;;;;;;;3.90;1.95;;;;;;;3.90;37.47;99862.41;5010769;28;20092;-61
2021/03/25 02:01:03;;;;;;;5.35;2.25;;;;;;;3.77;37.54;99867.47;5010184;28;20491;-61
2021/03/25 02:04:01;;;;;;;5.70;2.95;;;;;;;3.17;37.74;99799.94;5009263;28;20489;-61
2021/03/25 02:06:32;;;;;;;7.07;2.20;;;;;;;3.50;37.57;99864.47;5009772;28;20662;-59
2021/03/25 02:09:05;;;;;;;5.65;2.38;;;;;;;3.41;38.00;99861.34;5009871;28;20474;-61
2021/03/25 02:11:43;;;;;;;3.72;2.30;;;;;;;3.38;38.40;99863.31;5010253;28;20482;-62
2021/03/25 02:14:21;;;;;;;4.50;2.20;;;;;;;3.33;38.44;99860.00;5009880;28;20424;-62
2021/03/25 02:17:06;;;;;;;5.78;2.58;;;;;;;3.28;38.85;99869.03;5010067;28;20021;-61
2021/03/25 02:20:03;;;;;;;4.53;2.70;;;;;;;3.22;38.97;99871.13;5004989;28;20032;-60
2021/03/25 02:22:39;;;;;;;4.97;2.22;;;;;;;3.12;39.05;99847.78;4998946;28;20053;-60
2021/03/25 02:25:10;;;;;;;5.72;2.83;;;;;;;3.09;38.94;99855.88;5007894;28;20054;-61
2021/03/25 02:27:46;;;;;;;7.93;3.00;;;;;;;3.09;39.05;99853.22;4999687;28;20075;-60
2021/03/25 02:30:16;;;;;;;4.70;2.78;;;;;;;2.91;39.30;99857.63;5009810;28;20033;-59
2021/03/25 02:32:55;;;;;;;6.68;3.08;;;;;;;2.93;39.80;99850.47;5009133;28;20076;-62
2021/03/25 02:35:37;;;;;;;4.80;2.75;;;;;;;2.73;39.56;99838.19;5008878;28;20045;-59
2021/03/25 02:38:10;;;;;;;5.20;2.90;;;;;;;2.70;40.03;99847.16;5009356;28;20700;-61
2021/03/25 02:40:58;;;;;;;5.53;2.53;;;;;;;2.68;40.24;99850.78;5009854;28;20513;-64
2021/03/25 02:43:37;;;;;;;7.47;3.22;;;;;;;2.57;39.69;99843.38;5009746;28;20054;-60
2021/03/25 02:46:33;;;;;;;6.43;2.88;;;;;;;2.51;40.50;99844.50;4999263;28;20038;-61
2021/03/25 02:49:16;;;;;;;6.00;2.97;;;;;;;2.41;40.47;99859.09;5009437;28;20034;-61
2021/03/25 02:51:47;;;;;;;8.05;3.67;;;;;;;2.32;40.85;99849.78;5010135;28;20034;-60
2021/03/25 02:54:13;;;;;;;10.35;4.03;;;;;;;2.23;40.53;99842.31;5009802;28;20445;-61
2021/03/25 02:56:46;;;;;;;6.43;3.85;;;;;;;2.20;41.72;99855.66;5008531;28;20100;-62
2021/03/25 02:59:24;;;;;;;7.03;3.42;;;;;;;2.14;41.79;99872.63;5007199;28;20034;-61
2021/03/25 03:01:55;;;;;;;6.30;3.40;;;;;;;2.04;41.67;99848.41;5002312;28;20394;-59
2021/03/25 03:04:28;;;;;;;13.82;4.00;;;;;;;2.01;41.37;99857.31;5009954;28;20107;-61
2021/03/25 03:07:13;;;;;;;13.38;3.65;;;;;;;2.03;41.73;99854.63;5007936;28;20057;-57
2021/03/25 03:09:43;;;;;;;9.43;3.42;;;;;;;1.88;41.35;99836.81;5009319;28;20045;-60
2021/03/25 03:12:16;;;;;;;9.85;3.38;;;;;;;1.96;41.73;99858.47;5009450;28;20041;-61
2021/03/25 03:14:51;;;;;;;12.30;3.88;;;;;;;1.95;41.82;99878.72;5009191;28;20117;-62
2021/03/25 03:17:22;;;;;;;8.17;3.10;;;;;;;1.95;42.08;99873.44;5007570;28;20059;-59
2021/03/25 03:20:08;;;;;;;10.52;3.47;;;;;;;1.95;41.92;99865.53;5011267;28;20760;-63
2021/03/25 03:22:35;;;;;;;12.75;3.90;;;;;;;1.79;41.79;99843.34;5012767;28;20179;-61
2021/03/25 03:25:14;;;;;;;10.35;3.53;;;;;;;1.97;42.07;99860.19;5013274;28;20449;-60
2021/03/25 03:28:00;;;;;;;9.35;3.47;;;;;;;2.06;42.12;99867.69;5012320;28;20038;-59
2021/03/25 03:30:40;;;;;;;9.93;2.85;;;;;;;2.07;42.07;99869.41;5010874;28;20143;-60
2021/03/25 03:33:25;;;;;;;9.93;3.50;;;;;;;2.12;41.74;99854.19;5012576;28;20073;-61
2021/03/25 03:36:02;;;;;;;6.57;2.92;;;;;;;2.03;41.98;99828.22;5005244;28;20104;-60
2021/03/25 03:38:35;;;;;;;9.50;3.60;;;;;;;2.24;41.62;99859.88;5001812;28;20052;-61
2021/03/25 03:41:02;;;;;;;5.88;2.83;;;;;;;2.31;41.43;99858.66;5012796;28;20556;-57
2021/03/25 03:43:29;;;;;;;6.72;3.20;;;;;;;2.68;40.62;99854.31;5013066;28;20045;-61
2021/03/25 03:46:05;;;;;;;9.43;2.80;;;;;;;3.41;39.82;99852.56;5011912;28;20041;-60
2021/03/25 03:48:45;;;;;;;7.25;2.90;;;;;;;4.12;38.34;99848.91;5008142;28;20038;-61
2021/03/25 03:51:29;;;;;;;9.55;2.47;;;;;;;4.47;37.15;99844.41;5013033;28;20045;-61
2021/03/25 03:53:57;;;;;;;4.93;2.58;;;;;;;4.52;37.21;99850.31;5012786;28;20129;-61
2021/03/25 03:56:34;;;;;;;9.85;2.90;;;;;;;4.79;36.26;99855.00;5012617;28;20044;-61
2021/03/25 03:59:15;;;;;;;8.63;3.33;;;;;;;4.99;36.52;99851.25;5011972;28;20030;-62
2021/03/25 04:01:48;;;;;;;10.00;2.63;;;;;;;5.28;36.40;99865.47;5012728;28;20391;-62
2021/03/25 04:04:23;;;;;;;8.35;3.38;;;;;;;5.43;35.83;99857.56;5012269;28;20042;-56
2021/03/25 04:06:57;;;;;;;13.07;3.60;;;;;;;5.56;35.19;99855.91;5012702;28;20029;-62
2021/03/25 04:09:46;;;;;;;10.82;3.38;;;;;;;5.61;35.86;99847.66;5012848;28;20034;-54
2021/03/25 04:12:16;;;;;;;11.60;3.90;;;;;;;5.69;35.35;99855.16;5011481;28;20042;-61
2021/03/25 04:15:05;;;;;;;12.27;3.70;;;;;;;5.77;35.65;99863.53;5012289;28;20046;-63
2021/03/25 04:17:34;;;;;;;9.60;3.17;;;;;;;5.78;34.98;99862.56;5014849;28;20049;-59
2021/03/25 04:20:11;;;;;;;6.18;3.17;;;;;;;5.51;34.78;99806.66;5007663;28;20044;-60
2021/03/25 04:22:55;;;;;;;8.50;3.28;;;;;;;5.99;35.36;99851.59;5010891;28;20094;-62
2021/03/25 04:25:39;;;;;;;5.38;2.70;;;;;;;6.18;34.19;99867.31;5011903;28;20115;-60
2021/03/25 04:28:31;;;;;;;8.43;3.08;;;;;;;6.32;34.67;99863.81;5012696;28;20025;-61
2021/03/25 04:30:57;;;;;;;6.28;2.55;;;;;;;6.34;34.44;99855.72;5007845;28;20454;-62
2021/03/25 04:33:24;;;;;;;12.15;3.08;;;;;;;6.46;33.81;99855.78;5006663;28;20037;-62
2021/03/25 04:35:51;;;;;;;9.75;3.10;;;;;;;6.61;33.99;99847.81;5011706;28;20041;-62
2021/03/25 04:38:38;;;;;;;8.77;3.58;;;;;;;6.72;33.50;99842.63;5011711;28;20489;-61
2021/03/25 04:41:04;;;;;;;11.13;3.10;;;;;;;6.98;33.29;99858.72;5009658;28;20057;-61
2021/03/25 04:43:30;;;;;;;9.68;3.28;;;;;;;7.11;33.03;99844.63;5011983;28;20042;-57
2021/03/25 04:46:07;;;;;;;9.10;3.10;;;;;;;7.53;32.39;99865.81;5012060;28;20053;-60
2021/03/25 04:48:39;;;;;;;10.55;3.20;;;;;;;6.50;32.30;99680.91;5012082;28;20026;-62
2021/03/25 04:51:18;;;;;;;6.20;2.75;;;;;;;7.95;31.76;99871.00;5010815;28;20042;-62
2021/03/25 04:53:46;;;;;;;7.40;3.35;;;;;;;8.19;31.41;99873.78;5002759;28;20034;-62
2021/03/25 04:56:16;;;;;;;9.40;3.00;;;;;;;8.42;31.02;99869.47;5011668;28;20069;-63
2021/03/25 04:58:49;;;;;;;8.60;3.00;;;;;;;8.72;30.47;99862.09;5012065;28;20034;-62
2021/03/25 05:01:22;;;;;;;8.13;3.25;;;;;;;8.93;30.17;99854.34;5011195;28;20401;-63
2021/03/25 05:03:49;;;;;;;8.57;3.38;;;;;;;9.00;30.09;99841.38;5010025;28;20481;-56
2021/03/25 05:06:25;;;;;;;8.88;3.40;;;;;;;9.47;29.66;99868.19;5011874;28;20056;-66
2021/03/25 05:08:54;;;;;;;10.60;3.85;;;;;;;9.70;29.02;99874.44;5011899;28;20037;-63
2021/03/25 05:11:23;;;;;;;7.82;3.55;;;;;;;9.89;29.15;99865.91;5011535;28;20346;-61
2021/03/25 05:13:49;;;;;;;14.38;3.75;;;;;;;10.06;28.68;99869.06;5009791;28;20033;-61
2021/03/25 05:16:36;;;;;;;13.55;3.95;;;;;;;10.19;28.78;99872.50;5011393;28;20042;-62
2021/03/25 05:19:14;;;;;;;9.70;3.50;;;;;;;10.32;28.52;99866.16;5009434;28;20041;-62
2021/03/25 05:22:10;;;;;;;11.80;3.80;;;;;;;10.38;28.47;99868.38;5011409;28;20058;-64
2021/03/25 05:24:44;;;;;;;12.68;4.32;;;;;;;10.39;28.21;99861.19;5009295;28;20103;-61
2021/03/25 05:27:26;;;;;;;11.88;4.50;;;;;;;10.49;28.11;99864.88;5010996;28;20056;-64
2021/03/25 05:29:55;;;;;;;6.75;3.60;;;;;;;10.73;28.08;99864.72;5011501;28;20584;-63
2021/03/25 05:32:25;;;;;;;9.63;3.67;;;;;;;10.86;27.42;99837.78;5011509;28;20034;-61
2021/03/25 05:34:54;;;;;;;13.80;4.43;;;;;;;10.93;26.93;99792.59;5009662;28;20029;-63
2021/03/25 05:37:20;;;;;;;11.00;3.85;;;;;;;11.57;26.80;99855.19;5010943;28;20038;-62
2021/03/25 05:39:46;;;;;;;8.63;3.03;;;;;;;11.77;26.62;99836.53;5010725;28;20033;-62
2021/03/25 05:42:33;;;;;;;8.35;3.78;;;;;;;12.31;26.18;99866.00;5009941;28;20058;-63
2021/03/25 05:45:12;;;;;;;8.73;3.38;;;;;;;12.96;24.94;99854.88;5007164;28;20589;-62
2021/03/25 05:48:12;;;;;;;14.30;3.95;;;;;;;14.02;23.96;99854.16;5010890;28;20478;-63
2021/03/25 05:51:02;;;;;;;12.18;3.72;;;;;;;17.29;19.97;99845.69;5010143;28;20037;-60
2021/03/25 05:54:05;;;;;;;15.40;3.42;;;;;;;21.80;16.60;99849.00;5010267;28;20498;-63
2021/03/25 05:56:42;;;;;;;11.43;3.60;;;;;;;25.50;12.27;99842.16;5010587;28;20458;-60
2021/03/25 05:59:14;;;;;;;11.25;3.90;;;;;;;27.36;11.97;99841.38;5010189;28;20044;-59
2021/03/25 06:01:54;;;;;;;14.60;4.20;;;;;;;29.30;10.63;99849.00;5010259;28;20426;-63
2021/03/25 06:04:27;;;;;;;10.73;3.97;;;;;;;30.49;9.75;99849.00;5010644;28;20050;-63
2021/03/25 06:07:09;;;;;;;10.63;4.03;;;;;;;31.85;9.39;99854.91;5008003;28;20046;-61
2021/03/25 06:09:53;;;;;;;30.45;7.50;;;;;;;32.58;8.52;99844.28;5010006;28;20393;-61
2021/03/25 06:13:29;;;;;;;8.98;4.25;;;;;;;34.30;8.36;99854.47;5015370;28;20036;-62
2021/03/25 06:16:13;;;;;;;11.15;4.28;;;;;;;34.36;7.24;99842.22;4975554;28;20388;-62
2021/03/25 06:19:10;;;;;;;18.85;4.75;;;;;;;35.24;6.89;99850.19;5005387;28;20090;-66
2021/03/25 06:22:06;;;;;;;12.43;4.10;;;;;;;35.68;6.05;99847.63;5000724;28;20494;-67
2021/03/25 06:24:43;;;;;;;;;;;;;;;38.11;7.13;99851.97;5011223;28;20057;-72
2021/03/25 06:27:27;;;;;;;9.05;3.85;;;;;;;37.06;6.00;99852.81;5010433;28;20273;-72
2021/03/25 06:30:00;;;;;;;15.50;4.20;;;;;;;36.45;5.37;99852.44;5009704;28;20108;-63
2021/03/25 06:32:39;;;;;;;11.15;4.63;;;;;;;36.79;5.13;99847.88;5005368;28;20664;-71
2021/03/25 06:35:15;;;;;;;23.85;4.72;;;;;;;37.27;4.88;99849.72;5008308;28;20083;-65
2021/03/25 06:37:54;;;;;;;13.95;5.22;;;;;;;37.44;4.32;99853.94;5007151;28;20413;-73
2021/03/25 06:40:26;;;;;;;13.38;5.18;;;;;;;37.48;4.79;99852.19;5009582;28;20492;-68
2021/03/25 06:43:23;;;;;;;19.05;5.57;;;;;;;38.04;4.05;99858.81;5007579;28;20064;-69
2021/03/25 06:45:53;;;;;;;14.55;4.78;;;;;;;38.45;3.84;99854.41;5013670;28;20053;-70
2021/03/25 06:48:35;;;;;;;14.25;5.20;;;;;;;38.99;4.08;99845.41;5010263;28;20042;-71
2021/03/25 06:51:14;;;;;;;19.20;5.90;;;;;;;38.90;3.31;99855.69;5010468;28;20616;-71
2021/03/25 06:53:39;;;;;;;14.35;6.55;;;;;;;38.89;4.05;99812.88;5007097;28;20045;-67
2021/03/25 06:56:13;;;;;;;13.50;6.35;;;;;;;39.40;3.41;99845.63;5005962;28;20034;-74
2021/03/25 06:58:51;;;;;;;14.25;7.13;;;;;;;39.71;2.96;99853.25;5008708;28;20168;-71
2021/03/25 07:01:31;;;;;;;15.70;6.93;;;;;;;40.24;3.73;99842.31;5009102;28;20116;-72
2021/03/25 07:04:23;;;;;;;15.98;6.57;;;;;;;40.82;3.07;99848.78;5008253;28;20445;-65
2021/03/25 07:06:50;;;;;;;20.23;5.90;;;;;;;40.45;3.10;99837.78;5008827;28;20548;-70
2021/03/25 07:09:17;;;;;;;12.80;5.40;;;;;;;40.83;2.96;99844.03;5008430;28;20037;-70
2021/03/25 07:11:43;;;;;;;14.75;5.70;;;;;;;41.12;2.77;99843.38;5008188;28;20362;-70
2021/03/25 07:14:18;;;;;;;12.05;5.60;;;;;;;40.51;2.91;99849.69;5007406;28;20088;-68
2021/03/25 07:16:46;;;;;;;16.73;6.28;;;;;;;37.81;4.34;99832.63;5008055;28;20136;-70
2021/03/25 07:19:15;;;;;;;12.00;5.70;;;;;;;35.28;4.99;99856.84;5008562;28;20041;-69
2021/03/25 07:21:43;;;;;;;7.15;5.40;;;;;;;32.85;6.26;99859.91;5009014;28;20093;-68
2021/03/25 07:24:27;;;;;;;10.45;5.38;;;;;;;31.28;7.89;99856.31;5009096;28;20516;-72
2021/03/25 07:26:58;;;;;;;12.85;5.72;;;;;;;29.36;8.31;99868.16;5009368;28;20548;-69
2021/03/25 07:29:33;;;;;;;14.20;5.68;;;;;;;28.65;9.00;99860.97;5009050;28;20378;-67
2021/03/25 07:32:11;;;;;;;;;;;;;;;30.10;8.07;99848.19;5009295;28;20128;-71
2021/03/25 07:34:42;;;;;;;18.38;5.70;;;;;;;28.77;8.88;99852.69;5008994;28;19922;-70
2021/03/25 07:37:09;;;;;;;13.93;6.07;;;;;;;28.16;8.82;99839.25;5009574;28;20643;-67
2021/03/25 07:39:40;;;;;;;11.07;5.25;;;;;;;27.52;9.75;99861.91;5009474;28;20040;-59
2021/03/25 07:42:06;;;;;;;14.02;5.78;;;;;;;26.30;10.24;99804.94;5008960;28;20073;-63
2021/03/25 07:44:43;;;;;;;13.00;5.57;;;;;;;25.75;11.15;99855.03;5009634;28;20072;-65
2021/03/25 07:47:31;;;;;;;23.00;6.03;;;;;;;24.69;11.73;99804.22;5009588;28;20048;-66
2021/03/25 07:50:32;;;;;;;22.40;5.93;;;;;;;24.01;12.51;99862.88;5008755;28;20413;-64
2021/03/25 07:53:16;;;;;;;16.25;6.13;;;;;;;22.97;13.29;99857.66;5007289;28;20036;-67
2021/03/25 07:55:42;;;;;;;24.15;7.55;;;;;;;22.08;13.82;99845.47;5006556;28;20034;-72
2021/03/25 07:58:16;;;;;;;15.13;6.28;;;;;;;21.90;14.53;99842.38;5009633;28;20406;-71
2021/03/25 08:00:42;;;;;;;19.23;6.20;;;;;;;21.91;14.08;99844.91;5009562;28;20659;-65
2021/03/25 08:03:10;;;;;;;18.00;5.82;;;;;;;21.86;14.53;99852.00;5008759;28;20033;-64
2021/03/25 08:05:36;;;;;;;21.13;6.82;;;;;;;21.70;14.50;99855.81;5010539;28;20044;-67
2021/03/25 08:08:34;;;;;;;20.20;6.25;;;;;;;21.62;15.04;99852.19;5012487;28;20103;-67
2021/03/25 08:11:15;;;;;;;26.90;6.63;;;;;;;21.24;15.59;99857.91;5010504;28;20038;-67
2021/03/25 08:13:51;;;;;;;17.90;6.40;;;;;;;20.87;15.62;99860.63;5012805;28;20033;-68
2021/03/25 08:16:17;;;;;;;15.55;6.18;;;;;;;20.32;15.59;99787.50;5012363;28;20042;-66
2021/03/25 08:19:02;;;;;;;19.05;6.93;;;;;;;20.57;16.08;99855.19;5012989;28;20038;-66
2021/03/25 08:22:05;;;;;;;17.80;6.43;;;;;;;20.70;16.12;99838.19;5002132;28;20061;-64
2021/03/25 08:25:05;;;;;;;22.17;6.70;;;;;;;20.60;16.16;99835.75;5012784;28;20053;-68
2021/03/25 08:27:49;;;;;;;18.98;6.50;;;;;;;20.44;16.41;99839.53;5010773;28;20172;-68
2021/03/25 08:30:37;;;;;;;18.60;6.45;;;;;;;20.30;16.79;99837.69;5012275;28;20121;-67
2021/03/25 08:33:14;;;;;;;17.85;6.35;;;;;;;20.05;16.79;99837.94;5010475;28;20034;-75
2021/03/25 08:36:13;;;;;;;19.98;7.38;;;;;;;20.08;16.90;99832.97;5009140;28;20499;-72
2021/03/25 08:38:43;;;;;;;12.70;5.80;;;;;;;19.59;17.49;99834.25;5011802;28;20133;-64
2021/03/25 08:41:27;;;;;;;11.13;5.53;;;;;;;19.05;18.03;99784.47;5012323;28;20072;-61
2021/03/25 08:44:08;;;;;;;17.92;6.28;;;;;;;18.70;18.56;99827.34;5011116;28;20800;-58
2021/03/25 08:46:43;;;;;;;13.32;5.43;;;;;;;18.16;19.28;99817.22;5013315;28;20103;-58
2021/03/25 08:49:18;;;;;;;16.73;5.07;;;;;;;17.41;20.29;99811.88;5010544;28;20046;-66
2021/03/25 08:51:45;;;;;;;;;;;;;;;17.36;20.40;99823.22;5013232;28;20120;-65
2021/03/25 08:54:29;;;;;;;15.95;5.43;;;;;;;16.57;21.26;99828.06;5011338;28;20011;-64
2021/03/25 08:57:05;;;;;;;8.80;4.32;;;;;;;15.81;22.03;99771.13;5009721;28;20034;-62
2021/03/25 08:59:38;;;;;;;12.50;4.63;;;;;;;15.65;23.04;99823.97;5011827;28;20042;-62
2021/03/25 09:02:03;;;;;;;5.78;3.85;;;;;;;15.24;23.38;99818.22;5011580;28;20049;-63
2021/03/25 09:04:36;;;;;;;8.60;3.85;;;;;;;14.94;24.67;99823.84;5011167;28;20409;-64
2021/03/25 09:07:04;;;;;;;9.52;3.47;;;;;;;14.63;24.75;99806.13;5011696;28;20084;-63
2021/03/25 09:09:42;;;;;;;11.57;4.20;;;;;;;14.49;25.33;99820.97;5009337;28;20030;-61
2021/03/25 09:12:11;;;;;;;7.45;3.60;;;;;;;14.35;25.51;99821.44;5005577;28;20136;-63
2021/03/25 09:14:37;;;;;;;11.45;4.38;;;;;;;14.28;25.59;99829.25;5006542;28;20034;-61
2021/03/25 09:17:05;;;;;;;9.95;4.45;;;;;;;14.26;25.64;99820.50;5010383;28;20034;-62
2021/03/25 09:19:38;;;;;;;11.70;4.40;;;;;;;14.20;25.63;99826.47;5011387;28;20524;-64
2021/03/25 09:22:04;;;;;;;14.30;4.40;;;;;;;14.15;25.60;99823.38;5011364;28;20145;-67
2021/03/25 09:24:30;;;;;;;11.77;4.50;;;;;;;14.11;25.82;99814.75;5011233;28;20056;-65
2021/03/25 09:27:02;;;;;;;13.02;4.63;;;;;;;14.06;26.41;99772.09;5011467;28;20030;-64
2021/03/25 09:29:32;;;;;;;13.25;4.75;;;;;;;14.03;26.17;99777.78;5008341;28;20398;-65
2021/03/25 09:31:58;;;;;;;10.13;3.80;;;;;;;13.88;26.11;99777.41;5004456;28;20034;-64
2021/03/25 09:34:23;;;;;;;12.23;4.22;;;;;;;13.88;26.09;99779.28;5010829;28;20419;-61
2021/03/25 09:36:51;;;;;;;10.77;4.38;;;;;;;14.00;25.99;99772.69;5010782;28;20030;-60
2021/03/25 09:39:39;;;;;;;15.95;4.75;;;;;;;14.05;26.35;99777.66;4998760;28;20081;-62
2021/03/25 09:42:25;;;;;;;14.18;3.92;;;;;;;14.14;25.84;99784.00;5008120;28;20029;-64
2021/03/25 09:44:52;;;;;;;10.68;4.05;;;;;;;14.13;25.88;99777.75;5010689;28;20137;-62
2021/03/25 09:47:27;;;;;;;13.07;4.53;;;;;;;14.25;26.02;99774.88;5008303;28;20072;-59
2021/03/25 09:50:01;;;;;;;6.65;3.65;;;;;;;14.36;25.91;99771.97;5006268;28;20164;-67
2021/03/25 09:52:29;;;;;;;9.75;3.35;;;;;;;14.47;25.65;99779.88;5008317;28;20442;-65
2021/03/25 09:54:55;;;;;;;9.52;3.40;;;;;;;14.59;25.41;99761.66;5008530;28;20030;-65
2021/03/25 09:57:33;;;;;;;9.10;3.65;;;;;;;14.94;25.27;99775.31;5011243;28;20417;-68
2021/03/25 10:00:06;;;;;;;7.22;2.85;;;;;;;15.01;25.20;99773.72;5009846;28;20120;-62
2021/03/25 10:02:41;;;;;;;5.07;2.15;;;;;;;15.06;25.03;99765.13;5007583;28;20034;-62
2021/03/25 10:05:28;;;;;;;4.10;2.17;;;;;;;15.22;25.21;99764.47;5007088;28;20041;-70
2021/03/25 10:07:53;;;;;;;7.88;2.65;;;;;;;15.21;25.22;99763.59;5009379;28;20040;-63
2021/03/25 10:10:21;;;;;;;4.25;2.30;;;;;;;15.18;25.79;99761.22;5010494;28;20406;-58
2021/03/25 10:13:01;;;;;;;5.72;2.25;;;;;;;15.18;25.34;99754.97;5010144;28;20044;-55
2021/03/25 10:15:27;;;;;;;5.68;2.42;;;;;;;15.05;25.55;99758.91;4999813;28;20022;-63
2021/03/25 10:17:53;;;;;;;4.88;2.20;;;;;;;14.70;26.09;99728.22;5010276;28;20504;-65
2021/03/25 10:20:43;;;;;;;3.03;1.80;;;;;;;14.95;25.92;99754.59;5010309;28;20041;-67
2021/03/25 10:23:25;;;;;;;3.40;1.70;;;;;;;14.85;26.10;99754.69;5008837;28;20430;-64
2021/03/25 10:25:55;;;;;;;6.07;2.00;;;;;;;14.56;26.29;99731.44;5010414;28;20045;-62
2021/03/25 10:28:27;;;;;;;2.47;1.70;;;;;;;14.51;26.33;99748.06;5010212;28;20033;-64
2021/03/25 10:30:58;;;;;;;5.63;1.67;;;;;;;14.45;26.67;99737.91;5007351;28;20048;-62
2021/03/25 10:33:26;;;;;;;5.43;1.75;;;;;;;14.37;26.29;99725.19;5009841;28;20036;-67
2021/03/25 10:36:02;;;;;;;2.78;1.55;;;;;;;14.40;26.32;99734.81;5010287;28;20029;-64
2021/03/25 10:38:34;;;;;;;3.38;1.40;;;;;;;14.40;26.50;99738.34;5011500;28;20033;-64
2021/03/25 10:41:02;;;;;;;4.00;1.48;;;;;;;14.32;26.54;99738.25;5001291;28;20609;-63
2021/03/25 10:43:33;;;;;;;2.97;1.55;;;;;;;14.27;26.81;99733.31;5010678;28;20034;-62
2021/03/25 10:46:03;;;;;;;3.17;1.50;;;;;;;14.21;26.66;99737.44;5008959;28;20041;-64
2021/03/25 10:48:43;;;;;;;3.53;1.40;;;;;;;14.07;27.07;99708.34;5011031;28;20509;-65
2021/03/25 10:51:11;;;;;;;5.80;1.45;;;;;;;14.20;27.19;99725.00;5009047;28;20079;-64
2021/03/25 10:53:39;;;;;;;4.50;1.80;;;;;;;14.21;26.94;99731.22;5010127;28;20603;-64
2021/03/25 10:56:26;;;;;;;9.25;1.83;;;;;;;14.24;26.75;99722.84;5009281;28;20493;-60
2021/03/25 10:59:03;;;;;;;5.10;1.55;;;;;;;14.18;26.92;99715.38;5009187;28;20442;-63
2021/03/25 11:01:31;;;;;;;2.65;1.38;;;;;;;13.81;27.02;99678.56;5009825;28;20124;-64
2021/03/25 11:03:59;;;;;;;7.05;1.80;;;;;;;13.97;27.27;99707.53;5009156;28;20040;-63
2021/03/25 11:06:35;;;;;;;4.53;1.50;;;;;;;13.68;27.04;99652.00;5006714;28;20018;-59
2021/03/25 11:09:10;;;;;;;2.45;1.50;;;;;;;13.97;27.30;99715.59;5005466;28;20456;-66
2021/03/25 11:11:38;;;;;;;4.67;2.10;;;;;;;13.96;27.41;99700.47;5009867;28;20061;-65
2021/03/25 11:14:15;;;;;;;3.15;1.40;;;;;;;13.85;27.24;99699.66;5009319;28;20502;-65
2021/03/25 11:16:53;;;;;;;2.25;1.40;;;;;;;13.81;27.42;99694.72;5009410;28;20235;-64
2021/03/25 11:19:20;;;;;;;4.70;1.40;;;;;;;13.65;27.55;99696.22;5009523;28;20041;-65
2021/03/25 11:21:46;;;;;;;3.03;1.33;;;;;;;13.51;27.34;99667.09;5007318;28;20144;-66
2021/03/25 11:24:29;;;;;;;4.82;1.67;;;;;;;13.57;27.71;99696.94;5007158;28;20429;-66
2021/03/25 11:27:00;;;;;;;2.28;1.48;;;;;;;13.58;27.66;99689.72;5007306;28;20048;-64
2021/03/25 11:29:30;;;;;;;3.70;1.63;;;;;;;13.58;27.69;99693.25;5009687;28;20030;-65
2021/03/25 11:32:20;;;;;;;2.97;1.50;;;;;;;13.68;27.81;99695.91;5009012;28;20037;-65
2021/03/25 11:34:47;;;;;;;3.30;1.40;;;;;;;13.68;27.50;99689.69;5008820;28;20033;-62
2021/03/25 11:37:21;;;;;;;4.15;1.38;;;;;;;13.72;27.70;99689.25;5009447;28;20060;-64
2021/03/25 11:39:56;;;;;;;5.30;1.30;;;;;;;13.73;27.65;99682.00;5009641;28;20160;-64
2021/03/25 11:42:26;;;;;;;7.20;1.92;;;;;;;13.71;27.65;99684.00;5012861;28;20471;-63
2021/03/25 11:44:51;;;;;;;3.72;1.73;;;;;;;13.59;27.56;99668.06;5013248;28;20045;-64
2021/03/25 11:47:35;;;;;;;2.10;1.52;;;;;;;13.71;27.93;99678.63;5013102;28;20026;-61
2021/03/25 11:50:07;;;;;;;2.70;1.40;;;;;;;13.67;27.27;99675.41;5013495;28;20058;-61
2021/03/25 11:52:41;;;;;;;5.57;2.03;;;;;;;13.49;27.89;99661.84;5013219;28;20189;-65
2021/03/25 11:55:20;;;;;;;2.20;1.40;;;;;;;13.42;27.84;99655.34;5012457;28;20057;-66
2021/03/25 11:57:45;;;;;;;2.95;1.45;;;;;;;13.49;27.57;99667.22;5012108;28;20449;-65
2021/03/25 12:00:16;;;;;;;3.08;1.42;;;;;;;13.47;27.94;99669.22;5013072;28;20022;-64
2021/03/25 12:02:44;;;;;;;4.05;1.83;;;;;;;13.31;27.81;99642.91;5012761;28;20053;-64
2021/03/25 12:05:29;;;;;;;2.22;1.23;;;;;;;13.47;27.85;99661.16;5012451;28;20042;-62
2021/03/25 12:08:07;;;;;;;8.53;1.60;;;;;;;13.38;27.80;99648.56;5012725;28;20113;-63
2021/03/25 12:10:33;;;;;;;3.42;1.40;;;;;;;13.45;27.76;99650.56;5012765;28;20477;-68
2021/03/25 12:12:58;;;;;;;2.58;0.80;;;;;;;13.44;28.06;99645.31;5012308;28;20041;-66